sensor_id;sensor_type;location;lat;lon;timestamp;temperature;humidity
52725;DHT22;38621;52.830;6.914;2022-09-16T00:01:18;10.70;99.90
52725;DHT22;38621;52.830;6.914;2022-09-16T00:03:45;10.70;99.90
52725;DHT22;38621;52.830;6.914;2022-09-16T00:06:26;10.70;99.90
52725;DHT22;38621;52.830;6.914;2022-09-16T00:08:57;10.70;99.90
52725;DHT22;38621;52.830;6.914;2022-09-16T00:11:25;10.70;99.90
52725;DHT22;38621;52.830;6.914;2022-09-16T00:13:51;10.70;99.90
52725;DHT22;38621;52.830;6.914;2022-09-16T00:16:23;10.80;99.90
52725;DHT22;38621;52.830;6.914;2022-09-16T00:18:56;10.80;99.90
52725;DHT22;38621;52.830;6.914;2022-09-16T00:21:22;10.80;99.90
52725;DHT22;38621;52.830;6.914;2022-09-16T00:23:48;10.80;99.90
52725;DHT22;38621;52.830;6.914;2022-09-16T00:26:14;10.80;99.90
52725;DHT22;38621;52.830;6.914;2022-09-16T00:28:41;10.80;99.90
52725;DHT22;38621;52.830;6.914;2022-09-16T00:31:07;10.90;99.90
52725;DHT22;38621;52.830;6.914;2022-09-16T00:33:32;10.90;99.90
52725;DHT22;38621;52.830;6.914;2022-09-16T00:36:15;10.90;99.90
52725;DHT22;38621;52.830;6.914;2022-09-16T00:38:41;10.90;99.90
52725;DHT22;38621;52.830;6.914;2022-09-16T00:41:09;10.90;99.90
52725;DHT22;38621;52.830;6.914;2022-09-16T00:44:04;10.90;99.90
52725;DHT22;38621;52.830;6.914;2022-09-16T00:46:43;11.00;99.90
52725;DHT22;38621;52.830;6.914;2022-09-16T00:49:17;11.00;99.90
52725;DHT22;38621;52.830;6.914;2022-09-16T00:51:48;11.00;99.90
52725;DHT22;38621;52.830;6.914;2022-09-16T00:54:15;11.00;99.90
52725;DHT22;38621;52.830;6.914;2022-09-16T00:56:46;11.00;99.90
52725;DHT22;38621;52.830;6.914;2022-09-16T00:59:36;11.10;99.90
52725;DHT22;38621;52.830;6.914;2022-09-16T01:02:09;11.10;99.90
52725;DHT22;38621;52.830;6.914;2022-09-16T01:04:50;11.10;99.90
52725;DHT22;38621;52.830;6.914;2022-09-16T01:07:26;11.10;99.90
52725;DHT22;38621;52.830;6.914;2022-09-16T01:09:55;11.10;99.90
52725;DHT22;38621;52.830;6.914;2022-09-16T01:12:21;11.10;99.90
52725;DHT22;38621;52.830;6.914;2022-09-16T01:14:47;11.20;99.90
52725;DHT22;38621;52.830;6.914;2022-09-16T01:29:12;11.30;99.90
52725;DHT22;38621;52.830;6.914;2022-09-16T01:37:28;11.10;99.90
52725;DHT22;38621;52.830;6.914;2022-09-16T01:42:46;11.00;99.90
52725;DHT22;38621;52.830;6.914;2022-09-16T01:45:16;11.10;99.90
52725;DHT22;38621;52.830;6.914;2022-09-16T01:50:46;10.90;99.90
52725;DHT22;38621;52.830;6.914;2022-09-16T01:53:21;10.90;99.90
52725;DHT22;38621;52.830;6.914;2022-09-16T01:56:04;10.90;99.90
52725;DHT22;38621;52.830;6.914;2022-09-16T01:58:48;11.00;99.90
52725;DHT22;38621;52.830;6.914;2022-09-16T02:01:22;11.00;99.90
52725;DHT22;38621;52.830;6.914;2022-09-16T02:03:54;11.00;99.90
52725;DHT22;38621;52.830;6.914;2022-09-16T02:06:22;11.00;99.90
52725;DHT22;38621;52.830;6.914;2022-09-16T02:08:56;11.00;99.90
52725;DHT22;38621;52.830;6.914;2022-09-16T02:11:23;11.00;99.90
52725;DHT22;38621;52.830;6.914;2022-09-16T02:14:14;11.00;99.90
52725;DHT22;38621;52.830;6.914;2022-09-16T02:16:50;11.00;99.90
52725;DHT22;38621;52.830;6.914;2022-09-16T02:19:30;10.90;99.90
52725;DHT22;38621;52.830;6.914;2022-09-16T02:22:02;10.90;99.90
52725;DHT22;38621;52.830;6.914;2022-09-16T02:24:30;10.90;99.90
52725;DHT22;38621;52.830;6.914;2022-09-16T02:26:59;10.80;99.90
52725;DHT22;38621;52.830;6.914;2022-09-16T02:29:36;10.80;99.90
52725;DHT22;38621;52.830;6.914;2022-09-16T02:32:06;10.70;99.90
52725;DHT22;38621;52.830;6.914;2022-09-16T02:34:44;10.70;99.90
52725;DHT22;38621;52.830;6.914;2022-09-16T02:37:15;10.70;99.90
52725;DHT22;38621;52.830;6.914;2022-09-16T02:39:44;10.60;99.90
52725;DHT22;38621;52.830;6.914;2022-09-16T02:42:13;10.60;99.90
52725;DHT22;38621;52.830;6.914;2022-09-16T02:44:39;10.60;99.90
52725;DHT22;38621;52.830;6.914;2022-09-16T02:47:12;10.60;99.90
52725;DHT22;38621;52.830;6.914;2022-09-16T02:57:45;10.50;99.90
52725;DHT22;38621;52.830;6.914;2022-09-16T03:00:11;10.40;99.90
52725;DHT22;38621;52.830;6.914;2022-09-16T03:02:37;10.40;99.90
52725;DHT22;38621;52.830;6.914;2022-09-16T03:05:04;10.40;99.90
52725;DHT22;38621;52.830;6.914;2022-09-16T03:07:30;10.40;99.90
52725;DHT22;38621;52.830;6.914;2022-09-16T03:09:56;10.50;99.90
52725;DHT22;38621;52.830;6.914;2022-09-16T03:12:41;10.50;99.90
52725;DHT22;38621;52.830;6.914;2022-09-16T03:18:27;10.60;99.90
52725;DHT22;38621;52.830;6.914;2022-09-16T03:23:47;10.70;99.90
52725;DHT22;38621;52.830;6.914;2022-09-16T03:26:58;10.70;99.90
52725;DHT22;38621;52.830;6.914;2022-09-16T03:34:53;10.70;99.90
52725;DHT22;38621;52.830;6.914;2022-09-16T03:37:21;10.70;99.90
52725;DHT22;38621;52.830;6.914;2022-09-16T03:39:54;10.70;99.90
52725;DHT22;38621;52.830;6.914;2022-09-16T03:42:20;10.80;99.90
52725;DHT22;38621;52.830;6.914;2022-09-16T03:44:46;10.80;99.90
52725;DHT22;38621;52.830;6.914;2022-09-16T03:47:11;10.80;99.90
52725;DHT22;38621;52.830;6.914;2022-09-16T03:49:37;10.80;99.90
52725;DHT22;38621;52.830;6.914;2022-09-16T03:52:03;10.80;99.90
52725;DHT22;38621;52.830;6.914;2022-09-16T03:54:33;10.80;99.90
52725;DHT22;38621;52.830;6.914;2022-09-16T03:56:59;10.80;99.90
52725;DHT22;38621;52.830;6.914;2022-09-16T03:59:26;10.70;99.90
52725;DHT22;38621;52.830;6.914;2022-09-16T04:01:52;10.80;99.90
52725;DHT22;38621;52.830;6.914;2022-09-16T04:04:18;10.80;99.90
52725;DHT22;38621;52.830;6.914;2022-09-16T04:06:44;10.70;99.90
52725;DHT22;38621;52.830;6.914;2022-09-16T04:09:10;10.70;99.90
52725;DHT22;38621;52.830;6.914;2022-09-16T04:11:37;10.60;99.90
52725;DHT22;38621;52.830;6.914;2022-09-16T04:14:04;10.50;99.90
52725;DHT22;38621;52.830;6.914;2022-09-16T04:16:30;10.40;99.90
52725;DHT22;38621;52.830;6.914;2022-09-16T04:18:56;10.40;99.90
52725;DHT22;38621;52.830;6.914;2022-09-16T04:21:22;10.30;99.90
52725;DHT22;38621;52.830;6.914;2022-09-16T04:23:47;10.20;99.90
52725;DHT22;38621;52.830;6.914;2022-09-16T04:26:13;10.20;99.90
52725;DHT22;38621;52.830;6.914;2022-09-16T04:28:39;10.10;99.90
52725;DHT22;38621;52.830;6.914;2022-09-16T04:31:08;10.10;99.90
52725;DHT22;38621;52.830;6.914;2022-09-16T04:33:35;10.10;99.90
52725;DHT22;38621;52.830;6.914;2022-09-16T04:36:02;10.10;99.90
52725;DHT22;38621;52.830;6.914;2022-09-16T04:38:29;10.10;99.90
52725;DHT22;38621;52.830;6.914;2022-09-16T04:40:59;10.10;99.90
52725;DHT22;38621;52.830;6.914;2022-09-16T04:43:25;10.10;99.90
52725;DHT22;38621;52.830;6.914;2022-09-16T04:45:51;10.10;99.90
52725;DHT22;38621;52.830;6.914;2022-09-16T04:48:17;10.10;99.90
52725;DHT22;38621;52.830;6.914;2022-09-16T04:50:43;10.10;99.90
52725;DHT22;38621;52.830;6.914;2022-09-16T04:53:09;10.10;99.90
52725;DHT22;38621;52.830;6.914;2022-09-16T04:55:34;10.10;99.90
52725;DHT22;38621;52.830;6.914;2022-09-16T04:58:02;10.10;99.90
52725;DHT22;38621;52.830;6.914;2022-09-16T05:00:28;10.10;99.90
52725;DHT22;38621;52.830;6.914;2022-09-16T05:02:53;10.00;99.90
52725;DHT22;38621;52.830;6.914;2022-09-16T05:05:20;10.00;99.90
52725;DHT22;38621;52.830;6.914;2022-09-16T05:07:45;10.00;99.90
52725;DHT22;38621;52.830;6.914;2022-09-16T05:10:11;10.00;99.90
52725;DHT22;38621;52.830;6.914;2022-09-16T05:12:37;9.90;99.90
52725;DHT22;38621;52.830;6.914;2022-09-16T05:15:03;9.90;99.90
52725;DHT22;38621;52.830;6.914;2022-09-16T05:17:30;10.00;99.90
52725;DHT22;38621;52.830;6.914;2022-09-16T05:19:56;9.90;99.90
52725;DHT22;38621;52.830;6.914;2022-09-16T05:22:22;9.90;99.90
52725;DHT22;38621;52.830;6.914;2022-09-16T05:24:48;9.90;99.90
52725;DHT22;38621;52.830;6.914;2022-09-16T05:27:14;10.00;99.90
52725;DHT22;38621;52.830;6.914;2022-09-16T05:29:40;10.00;99.90
52725;DHT22;38621;52.830;6.914;2022-09-16T05:32:05;10.00;99.90
52725;DHT22;38621;52.830;6.914;2022-09-16T05:34:32;10.00;99.90
52725;DHT22;38621;52.830;6.914;2022-09-16T05:37:00;10.10;99.90
52725;DHT22;38621;52.830;6.914;2022-09-16T05:39:26;10.00;99.90
52725;DHT22;38621;52.830;6.914;2022-09-16T05:41:54;10.10;99.90
52725;DHT22;38621;52.830;6.914;2022-09-16T05:44:20;10.10;99.90
52725;DHT22;38621;52.830;6.914;2022-09-16T05:46:46;10.10;99.90
52725;DHT22;38621;52.830;6.914;2022-09-16T05:49:11;10.10;99.90
52725;DHT22;38621;52.830;6.914;2022-09-16T05:51:38;10.20;99.90
52725;DHT22;38621;52.830;6.914;2022-09-16T05:54:06;10.10;99.90
52725;DHT22;38621;52.830;6.914;2022-09-16T05:56:32;10.10;99.90
52725;DHT22;38621;52.830;6.914;2022-09-16T05:58:59;10.20;99.90
52725;DHT22;38621;52.830;6.914;2022-09-16T06:01:31;10.20;99.90
52725;DHT22;38621;52.830;6.914;2022-09-16T06:03:58;10.30;99.90
52725;DHT22;38621;52.830;6.914;2022-09-16T06:06:30;10.30;99.90
52725;DHT22;38621;52.830;6.914;2022-09-16T06:08:58;10.30;99.90
52725;DHT22;38621;52.830;6.914;2022-09-16T06:11:25;10.30;99.90
52725;DHT22;38621;52.830;6.914;2022-09-16T06:13:54;10.40;99.90
52725;DHT22;38621;52.830;6.914;2022-09-16T06:16:21;10.50;99.90
52725;DHT22;38621;52.830;6.914;2022-09-16T06:18:46;10.60;99.90
52725;DHT22;38621;52.830;6.914;2022-09-16T06:21:12;10.70;99.90
52725;DHT22;38621;52.830;6.914;2022-09-16T06:23:38;10.80;99.90
52725;DHT22;38621;52.830;6.914;2022-09-16T06:26:07;10.90;99.90
52725;DHT22;38621;52.830;6.914;2022-09-16T06:28:33;11.00;99.90
52725;DHT22;38621;52.830;6.914;2022-09-16T06:33:27;11.10;99.90
52725;DHT22;38621;52.830;6.914;2022-09-16T06:35:53;11.10;99.90
52725;DHT22;38621;52.830;6.914;2022-09-16T06:38:18;11.10;99.90
52725;DHT22;38621;52.830;6.914;2022-09-16T06:40:44;11.00;99.90
52725;DHT22;38621;52.830;6.914;2022-09-16T06:43:10;11.00;99.90
52725;DHT22;38621;52.830;6.914;2022-09-16T06:45:36;10.90;99.90
52725;DHT22;38621;52.830;6.914;2022-09-16T06:48:01;10.90;99.90
52725;DHT22;38621;52.830;6.914;2022-09-16T06:50:27;11.00;99.90
52725;DHT22;38621;52.830;6.914;2022-09-16T06:52:53;11.00;99.90
52725;DHT22;38621;52.830;6.914;2022-09-16T06:55:18;10.90;99.90
52725;DHT22;38621;52.830;6.914;2022-09-16T06:57:44;11.00;99.90
52725;DHT22;38621;52.830;6.914;2022-09-16T07:00:10;11.10;99.90
52725;DHT22;38621;52.830;6.914;2022-09-16T07:02:37;11.20;99.90
52725;DHT22;38621;52.830;6.914;2022-09-16T07:05:03;11.30;99.90
52725;DHT22;38621;52.830;6.914;2022-09-16T07:07:29;11.40;99.90
52725;DHT22;38621;52.830;6.914;2022-09-16T07:09:56;11.60;99.90
52725;DHT22;38621;52.830;6.914;2022-09-16T07:12:22;11.70;99.90
52725;DHT22;38621;52.830;6.914;2022-09-16T07:14:47;11.70;99.90
52725;DHT22;38621;52.830;6.914;2022-09-16T07:17:13;11.80;99.90
52725;DHT22;38621;52.830;6.914;2022-09-16T07:19:39;11.90;99.90
52725;DHT22;38621;52.830;6.914;2022-09-16T07:22:06;12.00;99.90
52725;DHT22;38621;52.830;6.914;2022-09-16T07:24:33;12.00;99.90
52725;DHT22;38621;52.830;6.914;2022-09-16T07:26:58;12.10;99.90
52725;DHT22;38621;52.830;6.914;2022-09-16T07:29:24;12.20;99.90
52725;DHT22;38621;52.830;6.914;2022-09-16T07:31:49;12.30;99.90
52725;DHT22;38621;52.830;6.914;2022-09-16T07:34:15;12.40;99.90
52725;DHT22;38621;52.830;6.914;2022-09-16T07:36:44;12.50;99.90
52725;DHT22;38621;52.830;6.914;2022-09-16T07:39:11;12.60;99.90
52725;DHT22;38621;52.830;6.914;2022-09-16T07:41:39;12.80;99.90
52725;DHT22;38621;52.830;6.914;2022-09-16T07:44:06;12.90;99.90
52725;DHT22;38621;52.830;6.914;2022-09-16T07:46:35;13.00;99.90
52725;DHT22;38621;52.830;6.914;2022-09-16T07:49:02;12.90;99.90
52725;DHT22;38621;52.830;6.914;2022-09-16T07:51:29;13.00;99.90
52725;DHT22;38621;52.830;6.914;2022-09-16T07:54:00;13.10;99.90
52725;DHT22;38621;52.830;6.914;2022-09-16T07:56:29;13.20;99.90
52725;DHT22;38621;52.830;6.914;2022-09-16T07:58:56;13.20;99.90
52725;DHT22;38621;52.830;6.914;2022-09-16T08:01:22;13.20;99.90
52725;DHT22;38621;52.830;6.914;2022-09-16T08:03:48;13.30;99.90
52725;DHT22;38621;52.830;6.914;2022-09-16T08:06:23;13.20;99.90
52725;DHT22;38621;52.830;6.914;2022-09-16T08:08:54;13.30;99.90
52725;DHT22;38621;52.830;6.914;2022-09-16T08:11:20;13.40;99.90
52725;DHT22;38621;52.830;6.914;2022-09-16T08:13:46;13.40;99.90
52725;DHT22;38621;52.830;6.914;2022-09-16T08:16:21;13.50;99.90
52725;DHT22;38621;52.830;6.914;2022-09-16T08:18:52;13.70;99.90
52725;DHT22;38621;52.830;6.914;2022-09-16T08:21:21;13.80;99.90
52725;DHT22;38621;52.830;6.914;2022-09-16T08:23:47;13.90;99.90
52725;DHT22;38621;52.830;6.914;2022-09-16T08:26:14;14.00;99.90
52725;DHT22;38621;52.830;6.914;2022-09-16T08:28:41;14.10;99.90
52725;DHT22;38621;52.830;6.914;2022-09-16T08:31:08;14.20;99.90
52725;DHT22;38621;52.830;6.914;2022-09-16T08:33:34;14.30;99.90
52725;DHT22;38621;52.830;6.914;2022-09-16T08:36:22;14.40;99.90
52725;DHT22;38621;52.830;6.914;2022-09-16T08:38:50;14.60;99.90
52725;DHT22;38621;52.830;6.914;2022-09-16T08:44:05;14.50;99.90
52725;DHT22;38621;52.830;6.914;2022-09-16T08:46:44;14.40;99.90
52725;DHT22;38621;52.830;6.914;2022-09-16T08:52:15;14.60;99.90
52725;DHT22;38621;52.830;6.914;2022-09-16T08:55:14;14.70;99.90
52725;DHT22;38621;52.830;6.914;2022-09-16T08:57:54;14.80;99.90
52725;DHT22;38621;52.830;6.914;2022-09-16T09:00:21;14.80;99.90
52725;DHT22;38621;52.830;6.914;2022-09-16T09:05:56;14.90;99.90
52725;DHT22;38621;52.830;6.914;2022-09-16T09:12:13;14.90;99.90
52725;DHT22;38621;52.830;6.914;2022-09-16T09:14:32;14.80;99.90
52725;DHT22;38621;52.830;6.914;2022-09-16T09:17:15;14.70;99.90
52725;DHT22;38621;52.830;6.914;2022-09-16T09:28:18;15.10;99.90
52725;DHT22;38621;52.830;6.914;2022-09-16T09:34:15;15.00;99.90
52725;DHT22;38621;52.830;6.914;2022-09-16T09:42:28;15.40;99.90
52725;DHT22;38621;52.830;6.914;2022-09-16T09:45:01;15.50;99.90
52725;DHT22;38621;52.830;6.914;2022-09-16T09:47:48;15.60;99.90
52725;DHT22;38621;52.830;6.914;2022-09-16T09:50:32;15.70;99.90
52725;DHT22;38621;52.830;6.914;2022-09-16T09:53:21;15.70;99.90
52725;DHT22;38621;52.830;6.914;2022-09-16T09:55:53;15.60;99.90
52725;DHT22;38621;52.830;6.914;2022-09-16T10:00:47;15.50;99.90
52725;DHT22;38621;52.830;6.914;2022-09-16T10:03:16;15.60;99.90
52725;DHT22;38621;52.830;6.914;2022-09-16T10:05:44;15.80;99.90
52725;DHT22;38621;52.830;6.914;2022-09-16T10:08:18;15.80;99.90
52725;DHT22;38621;52.830;6.914;2022-09-16T10:10:52;15.80;99.90
52725;DHT22;38621;52.830;6.914;2022-09-16T10:13:19;15.90;99.90
52725;DHT22;38621;52.830;6.914;2022-09-16T10:15:46;16.00;99.90
52725;DHT22;38621;52.830;6.914;2022-09-16T10:18:27;16.10;99.90
52725;DHT22;38621;52.830;6.914;2022-09-16T10:21:09;16.20;99.90
52725;DHT22;38621;52.830;6.914;2022-09-16T10:23:36;16.30;99.90
52725;DHT22;38621;52.830;6.914;2022-09-16T10:26:19;16.30;99.90
52725;DHT22;38621;52.830;6.914;2022-09-16T10:29:00;16.30;99.90
52725;DHT22;38621;52.830;6.914;2022-09-16T10:31:34;16.30;99.90
52725;DHT22;38621;52.830;6.914;2022-09-16T10:34:02;16.40;99.90
52725;DHT22;38621;52.830;6.914;2022-09-16T10:36:33;16.60;99.90
52725;DHT22;38621;52.830;6.914;2022-09-16T10:39:00;16.50;99.90
52725;DHT22;38621;52.830;6.914;2022-09-16T10:41:33;16.40;99.90
52725;DHT22;38621;52.830;6.914;2022-09-16T10:44:10;16.40;99.90
52725;DHT22;38621;52.830;6.914;2022-09-16T10:46:37;16.30;99.90
52725;DHT22;38621;52.830;6.914;2022-09-16T10:49:09;16.10;99.90
52725;DHT22;38621;52.830;6.914;2022-09-16T10:51:35;16.10;99.90
52725;DHT22;38621;52.830;6.914;2022-09-16T10:54:03;16.20;99.90
52725;DHT22;38621;52.830;6.914;2022-09-16T10:56:45;16.30;99.90
52725;DHT22;38621;52.830;6.914;2022-09-16T10:59:12;16.30;99.90
52725;DHT22;38621;52.830;6.914;2022-09-16T11:08:25;16.10;99.90
52725;DHT22;38621;52.830;6.914;2022-09-16T11:19:18;16.30;99.90
52725;DHT22;38621;52.830;6.914;2022-09-16T11:30:19;16.60;99.90
52725;DHT22;38621;52.830;6.914;2022-09-16T11:43:55;16.30;99.90
52725;DHT22;38621;52.830;6.914;2022-09-16T11:56:52;16.50;99.90
52725;DHT22;38621;52.830;6.914;2022-09-16T11:59:34;16.70;99.90
52725;DHT22;38621;52.830;6.914;2022-09-16T12:05:22;17.00;99.90
52725;DHT22;38621;52.830;6.914;2022-09-16T12:08:27;17.00;99.90
52725;DHT22;38621;52.830;6.914;2022-09-16T12:11:01;16.60;99.90
52725;DHT22;38621;52.830;6.914;2022-09-16T12:13:37;16.50;99.90
52725;DHT22;38621;52.830;6.914;2022-09-16T12:16:08;16.40;99.90
52725;DHT22;38621;52.830;6.914;2022-09-16T12:18:54;16.00;99.90
52725;DHT22;38621;52.830;6.914;2022-09-16T12:21:34;15.90;99.90
52725;DHT22;38621;52.830;6.914;2022-09-16T12:26:49;16.00;99.90
52725;DHT22;38621;52.830;6.914;2022-09-16T12:32:08;16.30;99.90
52725;DHT22;38621;52.830;6.914;2022-09-16T12:34:43;16.50;99.90
52725;DHT22;38621;52.830;6.914;2022-09-16T12:39:59;16.30;99.90
52725;DHT22;38621;52.830;6.914;2022-09-16T12:42:58;16.40;99.90
52725;DHT22;38621;52.830;6.914;2022-09-16T12:48:49;16.50;99.90
52725;DHT22;38621;52.830;6.914;2022-09-16T12:56:32;16.60;99.90
52725;DHT22;38621;52.830;6.914;2022-09-16T12:59:34;16.90;99.90
52725;DHT22;38621;52.830;6.914;2022-09-16T13:02:15;17.10;99.90
52725;DHT22;38621;52.830;6.914;2022-09-16T13:04:48;17.10;99.90
52725;DHT22;38621;52.830;6.914;2022-09-16T13:07:31;16.90;99.90
52725;DHT22;38621;52.830;6.914;2022-09-16T13:10:19;16.80;99.90
52725;DHT22;38621;52.830;6.914;2022-09-16T13:12:58;16.70;99.90
52725;DHT22;38621;52.830;6.914;2022-09-16T13:18:22;16.20;99.90
52725;DHT22;38621;52.830;6.914;2022-09-16T13:20:58;16.00;99.90
52725;DHT22;38621;52.830;6.914;2022-09-16T13:23:33;15.90;99.90
52725;DHT22;38621;52.830;6.914;2022-09-16T13:26:05;15.90;99.90
52725;DHT22;38621;52.830;6.914;2022-09-16T13:33:46;16.20;99.90
52725;DHT22;38621;52.830;6.914;2022-09-16T13:38:50;16.20;99.90
52725;DHT22;38621;52.830;6.914;2022-09-16T13:44:26;16.20;99.90
52725;DHT22;38621;52.830;6.914;2022-09-16T13:46:52;16.10;99.90
52725;DHT22;38621;52.830;6.914;2022-09-16T13:49:23;16.20;99.90
52725;DHT22;38621;52.830;6.914;2022-09-16T13:51:50;16.20;99.90
52725;DHT22;38621;52.830;6.914;2022-09-16T14:00:03;16.00;99.90
52725;DHT22;38621;52.830;6.914;2022-09-16T14:10:38;15.90;99.90
52725;DHT22;38621;52.830;6.914;2022-09-16T14:13:21;15.80;99.90
52725;DHT22;38621;52.830;6.914;2022-09-16T14:15:57;15.70;99.90
52725;DHT22;38621;52.830;6.914;2022-09-16T14:18:27;15.70;99.90
52725;DHT22;38621;52.830;6.914;2022-09-16T14:20:59;15.70;99.90
52725;DHT22;38621;52.830;6.914;2022-09-16T14:23:26;15.80;99.90
52725;DHT22;38621;52.830;6.914;2022-09-16T14:25:52;15.80;99.90
52725;DHT22;38621;52.830;6.914;2022-09-16T14:30:57;15.60;99.90
52725;DHT22;38621;52.830;6.914;2022-09-16T14:33:36;15.50;99.90
52725;DHT22;38621;52.830;6.914;2022-09-16T14:36:36;15.40;99.90
52725;DHT22;38621;52.830;6.914;2022-09-16T14:39:08;15.40;99.90
52725;DHT22;38621;52.830;6.914;2022-09-16T14:49:19;14.90;99.90
52725;DHT22;38621;52.830;6.914;2022-09-16T14:51:53;14.70;99.90
52725;DHT22;38621;52.830;6.914;2022-09-16T14:54:21;14.60;99.90
52725;DHT22;38621;52.830;6.914;2022-09-16T14:57:15;14.40;99.90
52725;DHT22;38621;52.830;6.914;2022-09-16T14:59:42;14.40;99.90
52725;DHT22;38621;52.830;6.914;2022-09-16T15:02:25;14.30;99.90
52725;DHT22;38621;52.830;6.914;2022-09-16T15:07:41;14.40;99.90
52725;DHT22;38621;52.830;6.914;2022-09-16T15:12:46;14.50;99.90
52725;DHT22;38621;52.830;6.914;2022-09-16T15:15:31;14.40;99.90
52725;DHT22;38621;52.830;6.914;2022-09-16T15:20:27;14.40;99.90
52725;DHT22;38621;52.830;6.914;2022-09-16T15:22:54;14.50;99.90
52725;DHT22;38621;52.830;6.914;2022-09-16T15:25:25;14.50;99.90
52725;DHT22;38621;52.830;6.914;2022-09-16T15:28:13;14.50;99.90
52725;DHT22;38621;52.830;6.914;2022-09-16T15:30:45;14.50;99.90
52725;DHT22;38621;52.830;6.914;2022-09-16T15:35:58;14.50;99.90
52725;DHT22;38621;52.830;6.914;2022-09-16T15:38:24;14.50;99.90
52725;DHT22;38621;52.830;6.914;2022-09-16T15:41:03;14.50;99.90
52725;DHT22;38621;52.830;6.914;2022-09-16T15:43:34;14.50;99.90
52725;DHT22;38621;52.830;6.914;2022-09-16T15:46:11;14.50;99.90
52725;DHT22;38621;52.830;6.914;2022-09-16T15:48:47;14.50;99.90
52725;DHT22;38621;52.830;6.914;2022-09-16T15:56:51;14.30;99.90
52725;DHT22;38621;52.830;6.914;2022-09-16T15:59:42;14.30;99.90
52725;DHT22;38621;52.830;6.914;2022-09-16T16:02:24;14.10;99.90
52725;DHT22;38621;52.830;6.914;2022-09-16T16:05:08;14.00;99.90
52725;DHT22;38621;52.830;6.914;2022-09-16T16:07:40;13.90;99.90
52725;DHT22;38621;52.830;6.914;2022-09-16T16:12:42;13.90;99.90
52725;DHT22;38621;52.830;6.914;2022-09-16T16:15:09;13.80;99.90
52725;DHT22;38621;52.830;6.914;2022-09-16T16:17:34;13.80;99.90
52725;DHT22;38621;52.830;6.914;2022-09-16T16:20:00;13.80;99.90
52725;DHT22;38621;52.830;6.914;2022-09-16T16:22:27;13.80;99.90
52725;DHT22;38621;52.830;6.914;2022-09-16T16:24:53;13.90;99.90
52725;DHT22;38621;52.830;6.914;2022-09-16T16:27:18;13.80;99.90
52725;DHT22;38621;52.830;6.914;2022-09-16T16:29:44;13.80;99.90
52725;DHT22;38621;52.830;6.914;2022-09-16T16:32:12;13.70;99.90
52725;DHT22;38621;52.830;6.914;2022-09-16T16:34:40;13.60;99.90
52725;DHT22;38621;52.830;6.914;2022-09-16T16:37:07;13.60;99.90
52725;DHT22;38621;52.830;6.914;2022-09-16T16:39:34;13.50;99.90
52725;DHT22;38621;52.830;6.914;2022-09-16T16:42:00;13.30;99.90
52725;DHT22;38621;52.830;6.914;2022-09-16T16:44:26;13.00;99.90
52725;DHT22;38621;52.830;6.914;2022-09-16T16:46:53;12.70;99.90
52725;DHT22;38621;52.830;6.914;2022-09-16T16:49:20;12.50;99.90
52725;DHT22;38621;52.830;6.914;2022-09-16T16:51:50;12.40;99.90
52725;DHT22;38621;52.830;6.914;2022-09-16T16:54:20;12.30;99.90
52725;DHT22;38621;52.830;6.914;2022-09-16T16:56:46;12.10;99.90
52725;DHT22;38621;52.830;6.914;2022-09-16T16:59:13;12.00;99.90
52725;DHT22;38621;52.830;6.914;2022-09-16T17:01:39;12.00;99.90
52725;DHT22;38621;52.830;6.914;2022-09-16T17:04:05;12.00;99.90
52725;DHT22;38621;52.830;6.914;2022-09-16T17:06:32;11.90;99.90
52725;DHT22;38621;52.830;6.914;2022-09-16T17:09:02;11.90;99.90
52725;DHT22;38621;52.830;6.914;2022-09-16T17:11:28;11.90;99.90
52725;DHT22;38621;52.830;6.914;2022-09-16T17:14:01;11.80;99.90
52725;DHT22;38621;52.830;6.914;2022-09-16T17:16:27;11.80;99.90
52725;DHT22;38621;52.830;6.914;2022-09-16T17:18:55;11.80;99.90
52725;DHT22;38621;52.830;6.914;2022-09-16T17:21:26;11.80;99.90
52725;DHT22;38621;52.830;6.914;2022-09-16T17:23:52;11.80;99.90
52725;DHT22;38621;52.830;6.914;2022-09-16T17:26:19;11.80;99.90
52725;DHT22;38621;52.830;6.914;2022-09-16T17:28:46;11.70;99.90
52725;DHT22;38621;52.830;6.914;2022-09-16T17:31:16;11.80;99.90
52725;DHT22;38621;52.830;6.914;2022-09-16T17:33:43;11.80;99.90
52725;DHT22;38621;52.830;6.914;2022-09-16T17:36:10;11.80;99.90
52725;DHT22;38621;52.830;6.914;2022-09-16T17:38:36;11.70;99.90
52725;DHT22;38621;52.830;6.914;2022-09-16T17:41:08;11.70;99.90
52725;DHT22;38621;52.830;6.914;2022-09-16T17:43:34;11.60;99.90
52725;DHT22;38621;52.830;6.914;2022-09-16T17:46:02;11.60;99.90
52725;DHT22;38621;52.830;6.914;2022-09-16T17:48:29;11.60;99.90
52725;DHT22;38621;52.830;6.914;2022-09-16T17:50:55;11.50;99.90
52725;DHT22;38621;52.830;6.914;2022-09-16T17:53:21;11.50;99.90
52725;DHT22;38621;52.830;6.914;2022-09-16T17:55:47;11.50;99.90
52725;DHT22;38621;52.830;6.914;2022-09-16T17:58:13;11.50;99.90
52725;DHT22;38621;52.830;6.914;2022-09-16T18:00:40;11.50;99.90
52725;DHT22;38621;52.830;6.914;2022-09-16T18:03:08;11.50;99.90
52725;DHT22;38621;52.830;6.914;2022-09-16T18:05:35;11.50;99.90
52725;DHT22;38621;52.830;6.914;2022-09-16T18:08:02;11.50;99.90
52725;DHT22;38621;52.830;6.914;2022-09-16T18:10:29;11.50;99.90
52725;DHT22;38621;52.830;6.914;2022-09-16T18:12:55;11.50;99.90
52725;DHT22;38621;52.830;6.914;2022-09-16T18:15:23;11.50;99.90
52725;DHT22;38621;52.830;6.914;2022-09-16T18:17:49;11.50;99.90
52725;DHT22;38621;52.830;6.914;2022-09-16T18:20:15;11.50;99.90
52725;DHT22;38621;52.830;6.914;2022-09-16T18:22:41;11.60;99.90
52725;DHT22;38621;52.830;6.914;2022-09-16T18:25:07;11.60;99.90
52725;DHT22;38621;52.830;6.914;2022-09-16T18:27:33;11.60;99.90
52725;DHT22;38621;52.830;6.914;2022-09-16T18:29:59;11.60;99.90
52725;DHT22;38621;52.830;6.914;2022-09-16T18:32:24;11.10;99.90
52725;DHT22;38621;52.830;6.914;2022-09-16T18:34:50;11.60;99.90
52725;DHT22;38621;52.830;6.914;2022-09-16T18:37:16;11.60;99.90
52725;DHT22;38621;52.830;6.914;2022-09-16T18:39:41;11.60;99.90
52725;DHT22;38621;52.830;6.914;2022-09-16T18:42:07;11.60;99.90
52725;DHT22;38621;52.830;6.914;2022-09-16T18:44:33;11.60;99.90
52725;DHT22;38621;52.830;6.914;2022-09-16T18:46:58;11.60;99.90
52725;DHT22;38621;52.830;6.914;2022-09-16T18:49:25;11.50;99.90
52725;DHT22;38621;52.830;6.914;2022-09-16T18:51:52;11.50;99.90
52725;DHT22;38621;52.830;6.914;2022-09-16T18:54:23;11.50;99.90
52725;DHT22;38621;52.830;6.914;2022-09-16T18:56:52;11.50;99.90
52725;DHT22;38621;52.830;6.914;2022-09-16T18:59:21;11.70;99.90
52725;DHT22;38621;52.830;6.914;2022-09-16T19:01:52;11.40;99.90
52725;DHT22;38621;52.830;6.914;2022-09-16T19:04:21;11.40;99.90
52725;DHT22;38621;52.830;6.914;2022-09-16T19:06:50;11.40;99.90
52725;DHT22;38621;52.830;6.914;2022-09-16T19:09:18;11.40;99.90